createdAt,value
2022-08-17T00:01:18.018Z,1003.7
2022-08-17T00:07:37.987Z,1003.7
2022-08-17T00:14:00.976Z,1003.7
2022-08-17T00:20:21.579Z,1003.68
2022-08-17T00:26:44.886Z,1003.68
2022-08-17T00:33:10.347Z,1003.66
2022-08-17T00:39:27.016Z,1003.62
2022-08-17T00:45:46.991Z,1003.62
2022-08-17T00:52:10.753Z,1003.58
2022-08-17T00:58:35.995Z,1003.56
2022-08-17T01:04:52.969Z,1003.56
2022-08-17T01:11:13.003Z,1003.54
2022-08-17T01:17:35.977Z,1003.49
2022-08-17T01:23:55.977Z,1003.51
2022-08-17T01:30:57.478Z,1003.49
2022-08-17T01:36:38.971Z,1003.53
2022-08-17T01:43:01.997Z,1003.58
2022-08-17T01:49:21.972Z,1003.62
2022-08-17T01:55:44.987Z,1003.64
2022-08-17T02:02:04.985Z,1003.66
2022-08-17T02:08:32.512Z,1003.64
2022-08-17T02:14:47.992Z,1003.62
2022-08-17T02:21:11.007Z,1003.58
2022-08-17T02:27:30.970Z,1003.58
2022-08-17T02:33:56.744Z,1003.56
2022-08-17T02:40:14.032Z,1003.56
2022-08-17T02:46:36.988Z,1003.54
2022-08-17T02:53:01.503Z,1003.54
2022-08-17T02:59:19.980Z,1003.51
2022-08-17T03:05:39.979Z,1003.49
2022-08-17T03:12:02.992Z,1003.49
2022-08-17T03:18:25.242Z,1003.43
2022-08-17T03:24:45.972Z,1003.41
2022-08-17T03:31:06.001Z,1003.43
2022-08-17T03:37:28.999Z,1003.45
2022-08-17T03:43:48.975Z,1003.49
2022-08-17T04:06:01.994Z,1003.58
2022-08-17T04:12:24.995Z,1003.58
2022-08-17T04:18:44.994Z,1003.6
2022-08-17T04:25:07.972Z,1003.68
2022-08-17T04:31:27.969Z,1003.66
2022-08-17T04:37:51.015Z,1003.66
2022-08-17T04:44:10.982Z,1003.7
2022-08-17T04:50:34.030Z,1003.7
2022-08-17T04:56:53.976Z,1003.72
2022-08-17T05:03:17.011Z,1003.72
2022-08-17T05:09:36.985Z,1003.7
2022-08-17T05:15:59.992Z,1003.66
2022-08-17T05:22:19.984Z,1003.62
2022-08-17T05:28:42.986Z,1003.58
2022-08-17T05:35:02.997Z,1003.58
2022-08-17T05:41:25.994Z,1003.58
2022-08-17T05:47:46.003Z,1003.62
2022-08-17T05:54:08.984Z,1003.68
2022-08-17T06:00:30.458Z,1003.66
2022-08-17T06:06:51.996Z,1003.66
2022-08-17T06:13:11.979Z,1003.68
2022-08-17T06:19:34.975Z,1003.66
2022-08-17T06:25:54.996Z,1003.7
2022-08-17T06:32:17.979Z,1003.7
2022-08-17T06:38:38.838Z,1003.72
2022-08-17T06:45:00.977Z,1003.86
2022-08-17T06:51:21.034Z,1003.92
2022-08-17T06:57:43.973Z,1004
2022-08-17T07:04:04.966Z,1003.98
2022-08-17T07:10:26.986Z,1004.03
2022-08-17T07:16:46.986Z,1004.15
2022-08-17T07:23:09.976Z,1004.13
2022-08-17T07:29:29.978Z,1004.11
2022-08-17T07:35:52.990Z,1004.23
2022-08-17T07:42:12.983Z,1004.33
2022-08-17T07:48:35.995Z,1004.41
2022-08-17T07:54:55.984Z,1004.41
2022-08-17T08:01:19.006Z,1004.43
2022-08-17T08:07:38.979Z,1004.41
2022-08-17T08:14:01.980Z,1004.39
2022-08-17T08:20:37.523Z,1004.41
2022-08-17T08:26:44.974Z,1004.56
2022-08-17T08:33:04.976Z,1004.68
2022-08-17T08:39:28.005Z,1004.72
2022-08-17T08:45:47.973Z,1004.76
2022-08-17T08:52:10.991Z,1004.76
2022-08-17T08:58:32.244Z,1004.8
2022-08-17T09:05:13.234Z,1004.86
2022-08-17T09:11:13.984Z,1004.88
2022-08-17T09:17:36.988Z,1004.9
2022-08-17T09:23:56.982Z,1004.88
2022-08-17T09:40:25.480Z,1004.92
2022-08-17T09:46:44.981Z,1004.9
2022-08-17T09:53:07.996Z,1004.9
2022-08-17T09:59:27.980Z,1004.86
2022-08-17T10:05:50.980Z,1004.82
2022-08-17T10:12:10.987Z,1004.8
2022-08-17T10:18:33.989Z,1004.84
2022-08-17T10:25:02.331Z,1004.86
2022-08-17T10:31:34.094Z,1004.9
2022-08-17T10:37:36.992Z,1004.95
2022-08-17T10:44:37.733Z,1005.01
2022-08-17T10:50:19.978Z,1005.07
2022-08-17T10:56:42.991Z,1005.11
2022-08-17T11:03:02.976Z,1005.13
2022-08-17T11:09:25.986Z,1005.09
2022-08-17T11:15:45.980Z,1005.07
2022-08-17T11:22:08.982Z,1005.07
2022-08-17T11:28:28.983Z,1005.03
2022-08-17T11:34:51.981Z,1004.95
2022-08-17T11:41:11.989Z,1004.95
2022-08-17T11:47:34.983Z,1004.92
2022-08-17T11:54:08.948Z,1004.88
2022-08-17T12:00:17.994Z,1004.86
2022-08-17T12:06:37.982Z,1004.84
2022-08-17T12:13:00.990Z,1004.9
2022-08-17T12:19:20.993Z,1004.92
2022-08-17T12:25:44.185Z,1004.92
2022-08-17T12:32:03.989Z,1004.92
2022-08-17T12:38:32.223Z,1004.92
2022-08-17T12:44:50.200Z,1004.86
2022-08-17T12:51:09.990Z,1004.88
2022-08-17T12:57:29.976Z,1004.9
2022-08-17T13:03:52.981Z,1004.84
2022-08-17T13:10:12.974Z,1004.78
2022-08-17T13:16:35.993Z,1004.72
2022-08-17T13:22:55.978Z,1004.74
2022-08-17T13:29:18.985Z,1004.74
2022-08-17T13:35:40.313Z,1004.76
2022-08-17T13:42:01.982Z,1004.76
2022-08-17T13:48:21.992Z,1004.68
2022-08-17T13:54:44.983Z,1004.58
2022-08-17T14:01:05.035Z,1004.58
2022-08-17T14:07:27.989Z,1004.54
2022-08-17T14:13:47.975Z,1004.58
2022-08-17T14:20:10.999Z,1004.64
2022-08-17T14:26:30.998Z,1004.56
2022-08-17T14:32:53.988Z,1004.56
2022-08-17T14:39:13.982Z,1004.48
2022-08-17T14:45:36.979Z,1004.47
2022-08-17T14:51:56.988Z,1004.47
2022-08-17T14:58:19.997Z,1004.45
2022-08-17T15:04:45.030Z,1004.47
2022-08-17T15:35:19.987Z,1004.39
2022-08-17T15:41:42.992Z,1004.35
2022-08-17T15:48:02.980Z,1004.33
2022-08-17T15:54:25.988Z,1004.35
2022-08-17T16:00:52.941Z,1004.35
2022-08-17T16:07:08.985Z,1004.41
2022-08-17T16:13:28.983Z,1004.45
2022-08-17T16:19:51.977Z,1004.43
2022-08-17T16:26:11.979Z,1004.41
2022-08-17T16:32:34.986Z,1004.39
2022-08-17T16:38:54.978Z,1004.35
2022-08-17T16:45:18.081Z,1004.29
2022-08-17T16:51:37.980Z,1004.29
2022-08-17T16:58:01.000Z,1004.35
2022-08-17T17:04:21.010Z,1004.31
2022-08-17T17:10:44.008Z,1004.29
2022-08-17T17:17:04.071Z,1004.31
2022-08-17T17:23:26.994Z,1004.33
2022-08-17T17:29:48.396Z,1004.39
2022-08-17T17:36:10.001Z,1004.48
2022-08-17T17:42:29.985Z,1004.5
2022-08-17T17:48:53.012Z,1004.6
2022-08-17T17:55:13.010Z,1004.66
2022-08-17T18:01:36.067Z,1004.76
2022-08-17T18:07:56.077Z,1004.8
2022-08-17T18:14:18.977Z,1004.8
2022-08-17T18:20:43.504Z,1004.82
2022-08-17T18:27:02.017Z,1004.86
2022-08-17T18:33:23.045Z,1004.86
2022-08-17T18:39:45.318Z,1004.94
2022-08-17T18:46:04.985Z,1005.01
2022-08-17T18:52:27.987Z,1005.09
2022-08-17T18:58:47.994Z,1005.17
2022-08-17T19:05:11.048Z,1005.23
2022-08-17T19:11:31.338Z,1005.29
2022-08-17T19:17:53.973Z,1005.38
2022-08-17T19:24:14.011Z,1005.55
2022-08-17T19:30:37.251Z,1005.65
2022-08-17T19:36:56.975Z,1005.67
2022-08-17T19:43:20.000Z,1005.71
2022-08-17T19:49:41.060Z,1005.76
2022-08-17T19:56:03.000Z,1005.8
2022-08-17T20:02:22.976Z,1005.82
2022-08-17T20:08:45.992Z,1005.84
2022-08-17T20:15:05.975Z,1005.86
2022-08-17T20:21:28.974Z,1005.98
2022-08-17T20:27:48.989Z,1006.02
2022-08-17T20:50:18.982Z,1006.16
2022-08-17T20:56:41.972Z,1006.16
2022-08-17T21:03:01.988Z,1006.21
2022-08-17T21:09:24.963Z,1006.21
2022-08-17T21:15:45.002Z,1006.19
2022-08-17T21:22:07.975Z,1006.21
2022-08-17T21:28:29.908Z,1006.31
2022-08-17T21:34:50.987Z,1006.43
2022-08-17T21:41:10.971Z,1006.49
2022-08-17T21:47:33.986Z,1006.49
2022-08-17T21:53:53.981Z,1006.55
2022-08-17T22:00:16.986Z,1006.45
2022-08-17T22:23:15.283Z,1006.68
2022-08-17T22:29:34.977Z,1006.72
2022-08-17T22:35:57.989Z,1006.76
2022-08-17T22:42:17.977Z,1006.8
2022-08-17T22:48:40.994Z,1006.82
2022-08-17T22:55:00.982Z,1006.84
2022-08-17T23:01:23.976Z,1006.8
2022-08-17T23:07:43.979Z,1006.8
2022-08-17T23:14:06.976Z,1006.82
2022-08-17T23:20:26.971Z,1006.86
2022-08-17T23:26:49.986Z,1006.9
2022-08-17T23:33:09.982Z,1006.9
2022-08-17T23:39:33.030Z,1006.88
2022-08-17T23:45:52.968Z,1006.96
2022-08-17T23:52:16.473Z,1007
2022-08-17T23:58:35.973Z,1006.96
